CFG3ZM LGIR-EDDL
Flight info
| Callsign | CFG3ZM |
|---|---|
| Flight time | N/A |
| Altitude | 34000 |
| Route | EPALO M749 DIRMI UL613 YNN UL604 DIMIS DCT RETRA DCT PETOV/N0454F360 DCT LAMSI L604 RODIS DCT TESDU DCT AMETU T852 TINSA T854 DOMUX DOMUX1A |
| Aircraft | A320/M-SDE3FGHIJ1LORVWXYZ/S |
Departure
| Time | 2026-04-30 12:18 |
|---|---|
| Airport | Heraklion International Nikos Kazantzakis Airport (LGIR) |
Arrival
| Time | N/A |
|---|---|
| Airport | Düsseldorf Airport (EDDL) |
| Time | Latitude | Longitude | Altitude | Speed | Heading |
|---|---|---|---|---|---|
| 2026-04-30 12:11 | 35.33768 | 25.17411 | 118 ft | 0 kts | 275° |
| 2026-04-30 12:12 | 35.33769 | 25.17400 | 91 ft | 3 kts | 275° |
| 2026-04-30 12:12 | 35.33797 | 25.17368 | 91 ft | 9 kts | 356° |
| 2026-04-30 12:13 | 35.33874 | 25.17375 | 92 ft | 11 kts | 4° |
| 2026-04-30 12:13 | 35.33919 | 25.17426 | 91 ft | 10 kts | 93° |
| 2026-04-30 12:13 | 35.33912 | 25.17508 | 93 ft | 9 kts | 96° |
| 2026-04-30 12:13 | 35.33906 | 25.17580 | 92 ft | 8 kts | 96° |
| 2026-04-30 12:14 | 35.33902 | 25.17636 | 91 ft | 5 kts | 94° |
| 2026-04-30 12:14 | 35.33899 | 25.17687 | 91 ft | 8 kts | 94° |
| 2026-04-30 12:14 | 35.33894 | 25.17778 | 92 ft | 13 kts | 94° |
| 2026-04-30 12:14 | 35.33885 | 25.17905 | 92 ft | 16 kts | 95° |
| 2026-04-30 12:15 | 35.33874 | 25.18045 | 92 ft | 17 kts | 94° |
| 2026-04-30 12:15 | 35.33864 | 25.18189 | 93 ft | 17 kts | 94° |
| 2026-04-30 12:15 | 35.33854 | 25.18341 | 91 ft | 19 kts | 95° |
| 2026-04-30 12:15 | 35.33842 | 25.18511 | 90 ft | 21 kts | 95° |
| 2026-04-30 12:16 | 35.33830 | 25.18689 | 90 ft | 21 kts | 95° |
| 2026-04-30 12:16 | 35.33818 | 25.18848 | 90 ft | 16 kts | 95° |
| 2026-04-30 12:16 | 35.33838 | 25.18962 | 90 ft | 14 kts | 57° |
| 2026-04-30 12:16 | 35.33887 | 25.19032 | 92 ft | 9 kts | 9° |
| 2026-04-30 12:17 | 35.33937 | 25.18575 | 89 ft | 83 kts | 275° |
| 2026-04-30 12:17 | 35.34003 | 25.17614 | 92 ft | 142 kts | 275° |
| 2026-04-30 12:17 | 35.34100 | 25.16228 | 265 ft | 171 kts | 276° |
| 2026-04-30 12:18 | 35.34262 | 25.14796 | 956 ft | 171 kts | 295° |
| 2026-04-30 12:18 | 35.35075 | 25.13767 | 1598 ft | 168 kts | 336° |
| 2026-04-30 12:18 | 35.36142 | 25.13258 | 2180 ft | 169 kts | 343° |
| 2026-04-30 12:18 | 35.37273 | 25.12857 | 2675 ft | 169 kts | 345° |
| 2026-04-30 12:19 | 35.38413 | 25.12501 | 3172 ft | 169 kts | 345° |
| 2026-04-30 12:19 | 35.39596 | 25.12131 | 3464 ft | 186 kts | 345° |
| 2026-04-30 12:19 | 35.40919 | 25.11708 | 3669 ft | 208 kts | 344° |
| 2026-04-30 12:19 | 35.42392 | 25.11225 | 3859 ft | 231 kts | 343° |
| 2026-04-30 12:20 | 35.44020 | 25.10679 | 4117 ft | 255 kts | 344° |
| 2026-04-30 12:20 | 35.45794 | 25.10074 | 4593 ft | 271 kts | 343° |
| 2026-04-30 12:20 | 35.47621 | 25.09441 | 5355 ft | 274 kts | 342° |
| 2026-04-30 12:20 | 35.49461 | 25.08802 | 6183 ft | 276 kts | 342° |
| 2026-04-30 12:21 | 35.51319 | 25.08154 | 6946 ft | 279 kts | 342° |
| 2026-04-30 12:21 | 35.53188 | 25.07499 | 7728 ft | 280 kts | 342° |
| 2026-04-30 12:21 | 35.55070 | 25.06840 | 8512 ft | 282 kts | 342° |
| 2026-04-30 12:21 | 35.56959 | 25.06174 | 9300 ft | 283 kts | 341° |
| 2026-04-30 12:22 | 35.58860 | 25.05502 | 10068 ft | 285 kts | 341° |
| 2026-04-30 12:22 | 35.60811 | 25.04810 | 10432 ft | 302 kts | 341° |
| 2026-04-30 12:22 | 35.62908 | 25.04064 | 10578 ft | 325 kts | 341° |
| 2026-04-30 12:22 | 35.65146 | 25.03269 | 10818 ft | 342 kts | 341° |
| 2026-04-30 12:23 | 35.67460 | 25.02452 | 11389 ft | 348 kts | 341° |
| 2026-04-30 12:23 | 35.69798 | 25.01625 | 12059 ft | 351 kts | 341° |
| 2026-04-30 12:23 | 35.72148 | 25.00775 | 12708 ft | 353 kts | 340° |
| 2026-04-30 12:23 | 35.74480 | 24.99794 | 13363 ft | 355 kts | 337° |
| 2026-04-30 12:24 | 35.76798 | 24.98711 | 13997 ft | 357 kts | 336° |
| 2026-04-30 12:24 | 35.79120 | 24.97580 | 14560 ft | 360 kts | 336° |
| 2026-04-30 12:24 | 35.81458 | 24.96435 | 15112 ft | 363 kts | 336° |
| 2026-04-30 12:24 | 35.83820 | 24.95288 | 15658 ft | 366 kts | 336° |
| 2026-04-30 12:25 | 35.86207 | 24.94143 | 16211 ft | 370 kts | 336° |
| 2026-04-30 12:25 | 35.88617 | 24.92998 | 16744 ft | 373 kts | 336° |
| 2026-04-30 12:25 | 35.91047 | 24.91848 | 17288 ft | 376 kts | 336° |
| 2026-04-30 12:25 | 35.93502 | 24.90687 | 17813 ft | 379 kts | 336° |
| 2026-04-30 12:26 | 35.95958 | 24.89475 | 18343 ft | 381 kts | 331° |
| 2026-04-30 12:26 | 35.98165 | 24.87678 | 18796 ft | 381 kts | 320° |
| 2026-04-30 12:26 | 36.00263 | 24.85657 | 19277 ft | 384 kts | 320° |
| 2026-04-30 12:26 | 36.02367 | 24.83611 | 19754 ft | 386 kts | 320° |
| 2026-04-30 12:27 | 36.04483 | 24.81542 | 20218 ft | 389 kts | 319° |
| 2026-04-30 12:27 | 36.06611 | 24.79454 | 20673 ft | 392 kts | 319° |
| 2026-04-30 12:27 | 36.08753 | 24.77352 | 21122 ft | 395 kts | 319° |
| 2026-04-30 12:27 | 36.10915 | 24.75237 | 21558 ft | 397 kts | 319° |
| 2026-04-30 12:28 | 36.13089 | 24.73111 | 21992 ft | 400 kts | 319° |
| 2026-04-30 12:28 | 36.15250 | 24.71001 | 22407 ft | 402 kts | 319° |
| 2026-04-30 12:28 | 36.17457 | 24.68845 | 22814 ft | 405 kts | 319° |
| 2026-04-30 12:28 | 36.19676 | 24.66675 | 23213 ft | 408 kts | 319° |
| 2026-04-30 12:29 | 36.21905 | 24.64492 | 23598 ft | 410 kts | 319° |
| 2026-04-30 12:29 | 36.24149 | 24.62292 | 23925 ft | 412 kts | 319° |
| 2026-04-30 12:29 | 36.26402 | 24.60088 | 24269 ft | 414 kts | 319° |
| 2026-04-30 12:29 | 36.28667 | 24.57875 | 24605 ft | 415 kts | 319° |
| 2026-04-30 12:30 | 36.30935 | 24.55651 | 24932 ft | 416 kts | 319° |
| 2026-04-30 12:30 | 36.33206 | 24.53416 | 25257 ft | 418 kts | 319° |
| 2026-04-30 12:30 | 36.35484 | 24.51167 | 25572 ft | 419 kts | 319° |
| 2026-04-30 12:30 | 36.37765 | 24.48913 | 25884 ft | 420 kts | 318° |
| 2026-04-30 12:31 | 36.40056 | 24.46648 | 26189 ft | 422 kts | 318° |
| 2026-04-30 12:31 | 36.42355 | 24.44379 | 26486 ft | 423 kts | 318° |
| 2026-04-30 12:31 | 36.43883 | 24.42871 | 26686 ft | 424 kts | 318° |
| 2026-04-30 12:31 | 36.46975 | 24.39819 | 27073 ft | 426 kts | 318° |
| 2026-04-30 12:32 | 36.48511 | 24.38300 | 27263 ft | 426 kts | 318° |
| 2026-04-30 12:32 | 36.50836 | 24.35999 | 27544 ft | 428 kts | 318° |
| 2026-04-30 12:32 | 36.53167 | 24.33692 | 27811 ft | 429 kts | 318° |
| 2026-04-30 12:32 | 36.55504 | 24.31374 | 28082 ft | 430 kts | 318° |
| 2026-04-30 12:33 | 36.57846 | 24.29049 | 28340 ft | 431 kts | 318° |
| 2026-04-30 12:33 | 36.60188 | 24.26719 | 28586 ft | 432 kts | 318° |
| 2026-04-30 12:33 | 36.62545 | 24.24374 | 28820 ft | 433 kts | 318° |
| 2026-04-30 12:33 | 36.64907 | 24.22028 | 29044 ft | 435 kts | 317° |
| 2026-04-30 12:34 | 36.67272 | 24.19677 | 29259 ft | 436 kts | 317° |
| 2026-04-30 12:34 | 36.69645 | 24.17316 | 29468 ft | 437 kts | 317° |
| 2026-04-30 12:34 | 36.72018 | 24.14952 | 29761 ft | 436 kts | 317° |
| 2026-04-30 12:34 | 36.74379 | 24.12597 | 30062 ft | 435 kts | 317° |
| 2026-04-30 12:35 | 36.76737 | 24.10243 | 30309 ft | 434 kts | 317° |
| 2026-04-30 12:35 | 36.79090 | 24.07893 | 30543 ft | 433 kts | 317° |
| 2026-04-30 12:35 | 36.81441 | 24.05544 | 30773 ft | 433 kts | 317° |
| 2026-04-30 12:35 | 36.83790 | 24.03195 | 31005 ft | 433 kts | 317° |
| 2026-04-30 12:36 | 36.86137 | 24.00842 | 31230 ft | 432 kts | 317° |
| 2026-04-30 12:36 | 36.88482 | 23.98490 | 31459 ft | 432 kts | 317° |
| 2026-04-30 12:36 | 36.90825 | 23.96141 | 31673 ft | 432 kts | 317° |